createdAt,value
2018-09-22T00:00:09.679Z,1008.26
2018-09-22T00:01:09.706Z,1008.30
2018-09-22T00:02:09.732Z,1008.25
2018-09-22T00:03:09.759Z,1008.26
2018-09-22T00:04:09.785Z,1008.32
2018-09-22T00:05:09.813Z,1008.34
2018-09-22T00:06:09.838Z,1008.33
2018-09-22T00:07:09.865Z,1008.37
2018-09-22T00:08:09.892Z,1008.41
2018-09-22T00:09:09.919Z,1008.45
2018-09-22T00:10:09.944Z,1008.40
2018-09-22T00:11:09.971Z,1008.39
2018-09-22T00:12:09.997Z,1008.38
2018-09-22T00:13:10.026Z,1008.46
2018-09-22T00:14:10.051Z,1008.45
2018-09-22T00:15:10.077Z,1008.41
2018-09-22T00:16:10.104Z,1008.41
2018-09-22T00:17:10.132Z,1008.43
2018-09-22T00:18:10.156Z,1008.38
2018-09-22T00:19:10.183Z,1008.42
2018-09-22T00:20:10.211Z,1008.43
2018-09-22T00:21:10.237Z,1008.42
2018-09-22T00:22:10.264Z,1008.47
2018-09-22T00:23:10.292Z,1008.44
2018-09-22T00:24:10.316Z,1008.40
2018-09-22T00:25:10.342Z,1008.43
2018-09-22T00:26:10.369Z,1008.36
2018-09-22T00:27:10.448Z,1008.51
2018-09-22T00:28:10.422Z,1008.54
2018-09-22T00:29:10.449Z,1008.53
2018-09-22T00:30:10.475Z,1008.56
2018-09-22T00:31:10.502Z,1008.58
2018-09-22T00:32:10.528Z,1008.63
2018-09-22T00:33:10.554Z,1008.66
2018-09-22T00:34:10.581Z,1008.62
2018-09-22T00:35:10.607Z,1008.63
2018-09-22T00:36:10.634Z,1008.60
2018-09-22T00:37:10.675Z,1008.63
2018-09-22T00:38:10.686Z,1008.73
2018-09-22T00:39:10.715Z,1008.73
2018-09-22T00:40:10.739Z,1008.67
2018-09-22T00:41:10.768Z,1008.84
2018-09-22T00:42:10.792Z,1008.75
2018-09-22T00:43:10.821Z,1008.73
2018-09-22T00:44:10.857Z,1008.82
2018-09-22T00:45:10.875Z,1008.82
2018-09-22T00:46:10.897Z,1008.74
2018-09-22T00:47:10.925Z,1008.79
2018-09-22T00:48:11.101Z,1008.88
2018-09-22T00:49:10.978Z,1008.85
2018-09-22T00:50:11.003Z,1008.89
2018-09-22T00:51:11.037Z,1008.85
2018-09-22T00:52:11.057Z,1008.85
2018-09-22T00:53:11.097Z,1008.79
2018-09-22T00:54:11.112Z,1008.83
2018-09-22T00:55:11.136Z,1008.86
2018-09-22T00:56:11.162Z,1008.91
2018-09-22T00:57:11.189Z,1008.92
2018-09-22T00:58:11.216Z,1008.96
2018-09-22T00:59:11.242Z,1008.95
2018-09-22T01:00:11.269Z,1008.96
2018-09-22T01:01:11.295Z,1008.97
2018-09-22T01:02:11.321Z,1008.96
2018-09-22T01:03:11.347Z,1008.98
2018-09-22T01:04:11.375Z,1009.08
2018-09-22T01:05:11.401Z,1009.04
2018-09-22T01:06:11.429Z,1008.99
2018-09-22T01:07:11.454Z,1009.04
2018-09-22T01:08:11.498Z,1009.10
2018-09-22T01:09:11.507Z,1009.03
2018-09-22T01:10:11.532Z,1009.02
2018-09-22T01:11:11.559Z,1009.05
2018-09-22T01:12:11.587Z,1009.02
2018-09-22T01:13:11.613Z,1009.01
2018-09-22T01:14:11.640Z,1008.98
2018-09-22T01:15:11.666Z,1009.06
2018-09-22T01:16:11.694Z,1009.04
2018-09-22T01:17:11.720Z,1009.12
2018-09-22T01:18:11.745Z,1009.12
2018-09-22T01:19:11.771Z,1009.16
2018-09-22T01:20:11.798Z,1009.17
2018-09-22T01:21:11.825Z,1009.22
2018-09-22T01:22:11.852Z,1009.22
2018-09-22T01:23:11.894Z,1009.19
2018-09-22T01:24:11.905Z,1009.23
2018-09-22T01:25:11.930Z,1009.22
2018-09-22T01:26:11.960Z,1009.20
2018-09-22T01:27:11.982Z,1009.25
2018-09-22T01:28:12.009Z,1009.23
2018-09-22T01:29:12.036Z,1009.28
2018-09-22T01:30:12.061Z,1009.29
2018-09-22T01:31:12.089Z,1009.34
2018-09-22T01:32:12.114Z,1009.39
2018-09-22T01:33:12.141Z,1009.39
2018-09-22T01:34:12.166Z,1009.40
2018-09-22T01:35:12.194Z,1009.39
2018-09-22T01:36:12.219Z,1009.41
2018-09-22T01:37:12.246Z,1009.44
2018-09-22T01:38:12.274Z,1009.43
2018-09-22T01:39:12.301Z,1009.45
2018-09-22T01:40:12.326Z,1009.44
2018-09-22T01:41:12.357Z,1009.47
2018-09-22T01:42:12.377Z,1009.51
2018-09-22T01:43:12.418Z,1009.45
2018-09-22T01:44:12.444Z,1009.52
2018-09-22T01:45:12.459Z,1009.44
2018-09-22T01:46:12.483Z,1009.49
2018-09-22T01:47:12.509Z,1009.52
2018-09-22T01:48:12.536Z,1009.52
2018-09-22T01:49:12.562Z,1009.54
2018-09-22T01:50:12.589Z,1009.51
2018-09-22T01:51:12.615Z,1009.53
2018-09-22T01:52:12.643Z,1009.56
2018-09-22T01:53:12.668Z,1009.54
2018-09-22T01:54:12.695Z,1009.59
2018-09-22T01:55:12.723Z,1009.58
2018-09-22T01:56:12.747Z,1009.59
2018-09-22T01:57:12.775Z,1009.63
2018-09-22T01:58:13.002Z,1009.59
2018-09-22T01:59:12.827Z,1009.67
2018-09-22T02:00:12.852Z,1009.64
2018-09-22T02:01:12.879Z,1009.68
2018-09-22T02:02:12.905Z,1009.64
2018-09-22T02:03:12.932Z,1009.71
2018-09-22T02:04:12.958Z,1009.61
2018-09-22T02:05:12.984Z,1009.64
2018-09-22T02:06:13.010Z,1009.63
2018-09-22T02:07:13.036Z,1009.68
2018-09-22T02:08:13.080Z,1009.68
2018-09-22T02:09:13.089Z,1009.69
2018-09-22T02:10:13.115Z,1009.72
2018-09-22T02:11:13.141Z,1009.69
2018-09-22T02:12:13.167Z,1009.77
2018-09-22T02:13:13.194Z,1009.76
2018-09-22T02:14:13.270Z,1009.72
2018-09-22T02:15:13.245Z,1009.73
2018-09-22T02:16:13.272Z,1009.76
2018-09-22T02:17:13.299Z,1009.82
2018-09-22T02:18:13.325Z,1009.82
2018-09-22T02:19:13.350Z,1009.84
2018-09-22T02:20:13.377Z,1009.79
2018-09-22T02:21:13.403Z,1009.83
2018-09-22T02:22:13.431Z,1009.83
2018-09-22T02:23:13.455Z,1009.74
2018-09-22T02:24:13.482Z,1009.73
2018-09-22T02:25:13.508Z,1009.72
2018-09-22T02:26:13.533Z,1009.84
2018-09-22T02:27:13.563Z,1009.80
2018-09-22T02:28:13.589Z,1009.83
2018-09-22T02:29:13.612Z,1009.90
2018-09-22T02:31:21.247Z,1009.89
2018-09-22T02:32:21.272Z,1009.88
2018-09-22T02:33:21.298Z,1009.91
2018-09-22T02:34:21.333Z,1009.86
2018-09-22T02:35:21.351Z,1009.93
2018-09-22T02:36:21.376Z,1009.85
2018-09-22T02:37:21.401Z,1009.86
2018-09-22T02:38:21.429Z,1009.90
2018-09-22T02:39:21.453Z,1009.89
2018-09-22T02:40:21.491Z,1009.92
2018-09-22T02:41:21.504Z,1009.96
2018-09-22T02:42:21.530Z,1009.94
2018-09-22T02:43:21.559Z,1009.94
2018-09-22T02:45:04.140Z,1009.95
2018-09-22T02:46:04.160Z,1009.96
2018-09-22T02:47:04.185Z,1009.97
2018-09-22T02:48:04.211Z,1010.01
2018-09-22T02:49:04.246Z,1009.99
2018-09-22T02:50:04.264Z,1010.01
2018-09-22T02:51:04.290Z,1009.99
2018-09-22T02:52:04.316Z,1010.03
2018-09-22T02:53:04.344Z,1010.13
2018-09-22T02:54:04.374Z,1010.11
2018-09-22T02:55:04.396Z,1010.11
2018-09-22T02:56:04.421Z,1010.09
2018-09-22T02:57:04.449Z,1010.14
2018-09-22T02:58:04.473Z,1010.15
2018-09-22T02:59:04.500Z,1010.16
2018-09-22T03:00:04.526Z,1010.16
2018-09-22T03:01:04.551Z,1010.18
2018-09-22T03:02:04.578Z,1010.17
2018-09-22T03:03:04.608Z,1010.18
2018-09-22T03:04:04.636Z,1010.09
2018-09-22T03:05:04.656Z,1010.09
2018-09-22T03:06:04.683Z,1010.14
2018-09-22T03:07:04.710Z,1010.14
2018-09-22T03:08:04.736Z,1010.13
2018-09-22T03:09:04.763Z,1010.15
2018-09-22T03:10:04.838Z,1010.13
2018-09-22T03:11:04.815Z,1010.16
2018-09-22T03:12:04.840Z,1010.13
2018-09-22T03:13:04.868Z,1010.15
2018-09-22T03:14:04.907Z,1010.14
2018-09-22T03:15:04.919Z,1010.17
2018-09-22T03:16:04.945Z,1010.18
2018-09-22T03:17:04.976Z,1010.24
2018-09-22T03:18:04.999Z,1010.20
2018-09-22T03:19:05.025Z,1010.28
2018-09-22T03:20:05.051Z,1010.26
2018-09-22T03:21:05.076Z,1010.20
2018-09-22T03:22:05.104Z,1010.29
2018-09-22T03:23:05.132Z,1010.23
2018-09-22T03:24:05.157Z,1010.23
2018-09-22T03:25:07.805Z,1010.24
2018-09-22T03:26:05.210Z,1010.30
2018-09-22T03:27:05.233Z,1010.30
2018-09-22T03:28:05.259Z,1010.37
2018-09-22T03:29:05.290Z,1010.34
2018-09-22T03:30:05.319Z,1010.33
2018-09-22T03:31:05.339Z,1010.38
2018-09-22T03:32:05.373Z,1010.35
2018-09-22T03:33:05.392Z,1010.37
2018-09-22T03:34:05.418Z,1010.33
2018-09-22T03:35:05.446Z,1010.32
2018-09-22T03:36:05.472Z,1010.40
2018-09-22T03:37:05.497Z,1010.42
2018-09-22T03:38:05.523Z,1010.41
2018-09-22T03:39:05.550Z,1010.38
2018-09-22T03:40:05.574Z,1010.41
2018-09-22T03:41:05.602Z,1010.43
2018-09-22T03:42:05.631Z,1010.48
2018-09-22T03:43:05.654Z,1010.48
2018-09-22T03:44:05.679Z,1010.51
2018-09-22T03:45:05.706Z,1010.48
2018-09-22T03:46:05.733Z,1010.43
2018-09-22T03:47:05.788Z,1010.51
2018-09-22T03:48:53.347Z,1010.49
2018-09-22T03:49:53.386Z,1010.49
2018-09-22T03:50:53.398Z,1010.52
2018-09-22T03:51:53.424Z,1010.57
2018-09-22T03:52:53.451Z,1010.52
2018-09-22T03:53:53.480Z,1010.51
2018-09-22T03:54:53.502Z,1010.47
2018-09-22T03:55:53.528Z,1010.51
2018-09-22T03:56:53.555Z,1010.53
2018-09-22T03:57:53.582Z,1010.52
2018-09-22T03:58:53.608Z,1010.50
2018-09-22T03:59:53.634Z,1010.55
2018-09-22T04:00:53.660Z,1010.55
2018-09-22T04:01:53.688Z,1010.54
2018-09-22T04:02:53.711Z,1010.51
2018-09-22T04:03:53.738Z,1010.52
2018-09-22T04:04:53.765Z,1010.47
2018-09-22T04:05:53.791Z,1010.46
2018-09-22T04:06:53.826Z,1010.51
2018-09-22T04:07:53.848Z,1010.53
2018-09-22T04:08:53.870Z,1010.55
2018-09-22T04:09:53.897Z,1010.58
2018-09-22T04:10:53.921Z,1010.57
2018-09-22T04:11:53.949Z,1010.54
2018-09-22T04:12:53.974Z,1010.58
2018-09-22T04:13:54.000Z,1010.62
2018-09-22T04:14:54.026Z,1010.57
2018-09-22T04:15:54.053Z,1010.61
2018-09-22T04:16:54.079Z,1010.60
2018-09-22T04:17:54.106Z,1010.61
2018-09-22T04:18:54.130Z,1010.62
2018-09-22T04:19:54.158Z,1010.65
2018-09-22T04:20:54.184Z,1010.62
2018-09-22T04:21:54.212Z,1010.65
2018-09-22T04:22:54.239Z,1010.63
2018-09-22T04:23:54.262Z,1010.60
2018-09-22T04:24:54.313Z,1010.67
2018-09-22T04:25:54.315Z,1010.68
2018-09-22T04:26:54.341Z,1010.73
2018-09-22T04:27:54.367Z,1010.78
2018-09-22T04:28:54.394Z,1010.72
2018-09-22T04:29:54.420Z,1010.72
2018-09-22T04:30:54.445Z,1010.69
2018-09-22T04:31:54.482Z,1010.79
2018-09-22T04:32:54.499Z,1010.76
2018-09-22T04:33:54.527Z,1010.72
2018-09-22T04:34:54.550Z,1010.72
2018-09-22T04:35:54.579Z,1010.78
2018-09-22T04:36:54.604Z,1010.82
2018-09-22T04:37:54.629Z,1010.81
2018-09-22T04:38:54.656Z,1010.83
2018-09-22T04:39:54.683Z,1010.87
2018-09-22T04:40:54.708Z,1010.89
2018-09-22T04:41:54.736Z,1010.94
2018-09-22T04:42:54.761Z,1010.96
2018-09-22T04:43:54.786Z,1010.91
2018-09-22T04:44:54.813Z,1010.83
2018-09-22T04:45:54.840Z,1010.90
2018-09-22T04:46:54.865Z,1010.90
2018-09-22T04:47:54.892Z,1010.99
2018-09-22T04:48:54.919Z,1010.98
2018-09-22T04:49:54.945Z,1011.01
2018-09-22T04:50:54.972Z,1010.98
2018-09-22T04:51:54.997Z,1010.99
2018-09-22T04:52:55.023Z,1010.97
2018-09-22T04:53:55.050Z,1011.01
2018-09-22T04:54:55.075Z,1011.01
2018-09-22T04:55:55.102Z,1011.06
2018-09-22T04:56:55.128Z,1011.00
2018-09-22T04:57:55.155Z,1011.04
2018-09-22T04:58:55.181Z,1010.99
2018-09-22T04:59:55.209Z,1010.98
2018-09-22T05:00:55.233Z,1011.04
2018-09-22T05:01:55.260Z,1011.01
2018-09-22T05:02:55.285Z,1011.04
2018-09-22T05:03:55.312Z,1011.06
2018-09-22T05:04:55.341Z,1011.08
2018-09-22T05:05:55.366Z,1011.15
2018-09-22T05:06:55.390Z,1011.20
2018-09-22T05:07:55.417Z,1011.20
2018-09-22T05:08:55.762Z,1011.21
2018-09-22T05:09:55.470Z,1011.16
2018-09-22T05:10:55.495Z,1011.14
2018-09-22T05:11:55.521Z,1011.14
2018-09-22T05:12:55.548Z,1011.18
2018-09-22T05:13:55.575Z,1011.20
2018-09-22T05:14:55.600Z,1011.23
2018-09-22T05:15:55.626Z,1011.27
2018-09-22T05:16:55.693Z,1011.28
2018-09-22T05:17:55.682Z,1011.30
2018-09-22T05:18:55.704Z,1011.32
2018-09-22T05:19:55.734Z,1011.32
2018-09-22T05:20:55.758Z,1011.34
2018-09-22T05:21:55.788Z,1011.35
2018-09-22T05:22:55.811Z,1011.44
2018-09-22T05:23:55.837Z,1011.39
2018-09-22T05:24:55.863Z,1011.36
2018-09-22T05:25:55.892Z,1011.33
2018-09-22T05:26:55.915Z,1011.39
2018-09-22T05:27:55.942Z,1011.42
2018-09-22T05:28:55.970Z,1011.46
2018-09-22T05:29:55.998Z,1011.46
2018-09-22T05:30:56.024Z,1011.47
2018-09-22T05:31:56.048Z,1011.50
2018-09-22T05:32:56.073Z,1011.47
2018-09-22T05:33:56.102Z,1011.48
2018-09-22T05:34:56.127Z,1011.46
2018-09-22T05:35:56.153Z,1011.49
2018-09-22T05:36:56.196Z,1011.42
2018-09-22T05:37:56.205Z,1011.50
2018-09-22T05:38:56.233Z,1011.53
2018-09-22T05:39:56.260Z,1011.54
2018-09-22T05:40:56.285Z,1011.50
2018-09-22T05:41:56.311Z,1011.59
2018-09-22T05:42:56.337Z,1011.62
2018-09-22T05:43:56.363Z,1011.61
2018-09-22T05:44:56.390Z,1011.64
2018-09-22T05:45:56.416Z,1011.63
2018-09-22T05:46:56.445Z,1011.66
2018-09-22T05:47:56.469Z,1011.63
2018-09-22T05:48:56.496Z,1011.68
2018-09-22T05:49:56.522Z,1011.63
2018-09-22T05:50:56.548Z,1011.66
2018-09-22T05:51:56.574Z,1011.67
2018-09-22T05:52:56.601Z,1011.71
2018-09-22T05:53:56.628Z,1011.72
2018-09-22T05:54:56.654Z,1011.76
2018-09-22T05:55:56.680Z,1011.79
2018-09-22T05:56:56.766Z,1011.74
2018-09-22T05:57:56.755Z,1011.74
2018-09-22T05:58:56.772Z,1011.71
2018-09-22T05:59:56.794Z,1011.63
2018-09-22T06:00:56.819Z,1011.69
2018-09-22T06:01:56.846Z,1011.72
2018-09-22T06:02:56.872Z,1011.70
2018-09-22T06:03:57.093Z,1011.71
2018-09-22T06:04:56.922Z,1011.71
2018-09-22T06:05:56.949Z,1011.75
2018-09-22T06:06:56.977Z,1011.73
2018-09-22T06:07:57.007Z,1011.70
2018-09-22T06:08:57.031Z,1011.74
2018-09-22T06:09:57.057Z,1011.74
2018-09-22T06:10:57.083Z,1011.74
2018-09-22T06:11:57.122Z,1011.76
2018-09-22T06:12:57.135Z,1011.73
2018-09-22T06:13:57.161Z,1011.73
2018-09-22T06:14:57.188Z,1011.75
2018-09-22T06:15:57.214Z,1011.83
2018-09-22T06:16:57.241Z,1011.77
2018-09-22T06:17:57.268Z,1011.80
2018-09-22T06:18:57.297Z,1011.79
2018-09-22T06:19:57.320Z,1011.76
2018-09-22T06:20:57.349Z,1011.79
2018-09-22T06:21:57.377Z,1011.80
2018-09-22T06:22:57.437Z,1011.81
2018-09-22T06:23:57.428Z,1011.86
2018-09-22T06:24:57.455Z,1011.88
2018-09-22T06:25:57.481Z,1011.86
2018-09-22T06:26:57.506Z,1011.89
2018-09-22T06:27:57.533Z,1011.90
2018-09-22T06:28:57.569Z,1011.94
2018-09-22T06:29:57.587Z,1011.95
2018-09-22T06:30:57.615Z,1011.95
2018-09-22T06:31:57.640Z,1011.91
2018-09-22T06:32:57.668Z,1011.92
2018-09-22T06:33:57.695Z,1011.89
2018-09-22T06:34:57.721Z,1011.89
2018-09-22T06:35:57.748Z,1011.86
2018-09-22T06:36:57.776Z,1011.90
2018-09-22T06:37:57.803Z,1011.86
2018-09-22T06:38:57.826Z,1011.94
2018-09-22T06:39:57.856Z,1011.94
2018-09-22T06:40:57.882Z,1011.94
2018-09-22T06:41:57.914Z,1011.98
2018-09-22T06:42:57.936Z,1011.99
2018-09-22T06:43:57.963Z,1011.99
2018-09-22T06:44:57.991Z,1011.94
2018-09-22T06:45:58.017Z,1011.88
2018-09-22T06:46:58.044Z,1011.85
2018-09-22T06:47:58.070Z,1011.83
2018-09-22T06:48:58.098Z,1011.82
2018-09-22T06:49:58.126Z,1011.81
2018-09-22T06:50:58.149Z,1011.88
2018-09-22T06:51:58.178Z,1011.85
2018-09-22T06:52:58.209Z,1011.83
2018-09-22T06:54:00.856Z,1011.80
2018-09-22T06:54:58.299Z,1011.78
2018-09-22T06:55:58.285Z,1011.78
2018-09-22T06:56:58.311Z,1011.80
2018-09-22T06:57:58.338Z,1011.83
2018-09-22T06:58:58.364Z,1011.82
2018-09-22T06:59:58.391Z,1011.87
2018-09-22T07:00:58.440Z,1011.91
2018-09-22T07:01:58.446Z,1011.88
2018-09-22T07:02:58.473Z,1011.89
2018-09-22T07:03:58.506Z,1011.90
2018-09-22T07:04:58.528Z,1011.90
2018-09-22T07:05:58.572Z,1011.97
2018-09-22T07:06:58.580Z,1011.96
2018-09-22T07:07:58.608Z,1011.99
2018-09-22T07:08:58.635Z,1012.08
2018-09-22T07:09:58.664Z,1012.05
2018-09-22T07:10:58.688Z,1012.08
2018-09-22T07:11:58.714Z,1012.05
2018-09-22T07:12:58.743Z,1012.02
2018-09-22T07:13:58.847Z,1012.05
2018-09-22T07:14:58.795Z,1012.05
2018-09-22T07:15:58.823Z,1012.04
2018-09-22T07:16:58.849Z,1012.10
2018-09-22T07:17:58.876Z,1012.06
2018-09-22T07:18:58.904Z,1012.12
2018-09-22T07:19:58.932Z,1012.10
2018-09-22T07:20:58.958Z,1012.08
2018-09-22T07:21:58.986Z,1012.12
2018-09-22T07:22:59.055Z,1012.16
2018-09-22T07:23:59.038Z,1012.42
2018-09-22T07:24:59.065Z,1012.45
2018-09-22T07:25:59.093Z,1012.50
2018-09-22T07:26:59.119Z,1012.45
2018-09-22T07:27:59.149Z,1012.63
2018-09-22T07:28:59.176Z,1012.55
2018-09-22T07:29:59.202Z,1012.47
2018-09-22T07:30:59.295Z,1012.39
2018-09-22T07:31:59.256Z,1012.40
2018-09-22T07:32:59.287Z,1012.21
2018-09-22T07:33:59.315Z,1012.21
2018-09-22T07:34:59.338Z,1012.27
2018-09-22T07:35:59.369Z,1012.23
2018-09-22T07:36:59.394Z,1012.16
2018-09-22T07:37:59.424Z,1012.15
2018-09-22T07:38:59.471Z,1012.16
2018-09-22T07:39:59.477Z,1012.23
2018-09-22T07:40:59.507Z,1012.23
2018-09-22T07:41:59.538Z,1012.33
2018-09-22T07:42:59.562Z,1012.48
2018-09-22T07:43:59.591Z,1012.66
2018-09-22T07:44:59.618Z,1012.66
2018-09-22T07:45:59.644Z,1012.62
2018-09-22T07:46:59.673Z,1012.53
2018-09-22T07:47:59.703Z,1012.60
2018-09-22T07:49:00.055Z,1012.80
2018-09-22T07:49:59.756Z,1012.90
2018-09-22T07:50:59.785Z,1013.08
2018-09-22T07:51:59.811Z,1012.90
2018-09-22T07:52:59.840Z,1013.24
2018-09-22T07:53:59.869Z,1013.08
2018-09-22T07:54:59.896Z,1013.10
2018-09-22T07:55:59.925Z,1013.29
2018-09-22T07:56:59.999Z,1013.13
2018-09-22T07:57:59.989Z,1012.67
2018-09-22T07:59:00.015Z,1012.84
2018-09-22T08:00:00.041Z,1012.22
2018-09-22T08:01:00.069Z,1012.47
2018-09-22T08:02:00.098Z,1012.44
2018-09-22T08:03:00.128Z,1012.97
2018-09-22T08:04:00.154Z,1012.38
2018-09-22T08:05:00.184Z,1012.17
2018-09-22T08:06:00.214Z,1012.14
2018-09-22T08:07:00.243Z,1012.29
2018-09-22T08:08:00.271Z,1012.81
2018-09-22T08:09:00.300Z,1012.60
2018-09-22T08:10:00.331Z,1012.64
2018-09-22T08:11:00.358Z,1012.83
2018-09-22T08:12:00.389Z,1012.93
2018-09-22T08:13:00.417Z,1013.20
2018-09-22T08:14:00.447Z,1012.88
2018-09-22T08:15:00.474Z,1012.58
2018-09-22T08:16:00.509Z,1013.29
2018-09-22T08:17:00.542Z,1012.98
2018-09-22T08:18:00.565Z,1012.75
2018-09-22T08:19:00.596Z,1012.76
2018-09-22T08:20:00.627Z,1012.50
2018-09-22T08:21:00.659Z,1012.26
2018-09-22T08:22:00.690Z,1012.59
2018-09-22T08:23:00.714Z,1012.24
2018-09-22T08:24:00.745Z,1012.37
2018-09-22T08:25:00.777Z,1012.53
2018-09-22T08:26:00.808Z,1012.48
2018-09-22T08:27:00.837Z,1012.61
2018-09-22T08:28:00.868Z,1012.71
2018-09-22T08:29:00.898Z,1012.75
2018-09-22T08:30:01.250Z,1012.68
2018-09-22T08:31:00.961Z,1012.65
2018-09-22T08:32:01.032Z,1012.63
2018-09-22T08:33:01.022Z,1012.76
2018-09-22T08:34:01.049Z,1012.68
2018-09-22T08:35:01.078Z,1012.76
2018-09-22T08:36:01.144Z,1012.73
2018-09-22T08:37:01.260Z,1012.73
2018-09-22T08:38:01.169Z,1012.75
2018-09-22T08:39:01.200Z,1012.82
2018-09-22T08:40:01.231Z,1012.92
2018-09-22T08:41:01.262Z,1013.03
2018-09-22T08:42:01.290Z,1013.04
2018-09-22T08:43:01.323Z,1012.98
2018-09-22T08:44:01.391Z,1013.03
2018-09-22T08:45:01.497Z,1012.97
2018-09-22T08:46:01.414Z,1013.11
2018-09-22T08:47:01.444Z,1013.11
2018-09-22T08:48:01.478Z,1012.98
2018-09-22T08:49:01.508Z,1013.12
2018-09-22T08:50:01.566Z,1013.10
2018-09-22T08:51:01.573Z,1013.17
2018-09-22T08:52:01.603Z,1012.54
2018-09-22T08:53:01.637Z,1012.58
2018-09-22T08:54:01.669Z,1012.63
2018-09-22T08:55:01.699Z,1012.66
2018-09-22T08:56:01.731Z,1012.89
2018-09-22T08:57:01.767Z,1013.05
2018-09-22T08:58:01.819Z,1012.78
2018-09-22T08:59:01.828Z,1012.99
2018-09-22T09:00:01.861Z,1012.73
2018-09-22T09:01:01.894Z,1012.89
2018-09-22T09:02:01.929Z,1012.93
2018-09-22T09:03:01.959Z,1012.92
2018-09-22T09:04:01.992Z,1012.97
2018-09-22T09:05:02.098Z,1012.73
2018-09-22T09:06:02.059Z,1012.67
2018-09-22T09:07:02.091Z,1012.57
2018-09-22T09:08:02.124Z,1012.56
2018-09-22T09:09:02.160Z,1012.46
2018-09-22T09:10:02.191Z,1012.57
2018-09-22T09:11:02.218Z,1012.52
2018-09-22T09:12:02.255Z,1012.71
2018-09-22T09:13:02.303Z,1012.51
2018-09-22T09:14:02.332Z,1012.52
2018-09-22T09:15:02.347Z,1012.46
2018-09-22T09:16:02.379Z,1012.42
2018-09-22T09:17:02.472Z,1012.41
2018-09-22T09:18:02.446Z,1012.39
2018-09-22T09:19:02.477Z,1012.32
2018-09-22T09:20:02.506Z,1012.35
2018-09-22T09:21:02.540Z,1012.39
2018-09-22T09:22:02.572Z,1012.40
2018-09-22T09:23:02.601Z,1012.45
2018-09-22T09:24:02.635Z,1012.39
2018-09-22T09:25:02.666Z,1012.30
2018-09-22T09:26:02.693Z,1012.35
2018-09-22T09:27:02.724Z,1012.37
2018-09-22T09:28:02.755Z,1012.39
2018-09-22T09:29:02.786Z,1012.39
2018-09-22T09:30:02.817Z,1012.34
2018-09-22T09:31:02.846Z,1012.42
2018-09-22T09:32:02.896Z,1012.45
2018-09-22T09:33:02.909Z,1012.48
2018-09-22T09:34:02.941Z,1012.44
2018-09-22T09:35:02.969Z,1012.41
2018-09-22T09:36:02.999Z,1012.42
2018-09-22T09:37:03.031Z,1012.33
2018-09-22T09:38:03.060Z,1012.28
2018-09-22T09:39:03.090Z,1012.35
2018-09-22T09:40:03.118Z,1012.27
2018-09-22T09:41:03.151Z,1012.40
2018-09-22T09:42:03.181Z,1012.32
2018-09-22T09:43:03.210Z,1012.27
2018-09-22T09:44:03.239Z,1012.28
2018-09-22T09:45:03.270Z,1012.28
2018-09-22T09:46:03.299Z,1012.08
2018-09-22T09:47:03.328Z,1012.14
2018-09-22T09:48:03.358Z,1012.01
2018-09-22T09:49:03.389Z,1011.97
2018-09-22T09:50:03.418Z,1012.05
2018-09-22T09:51:03.451Z,1012.08
2018-09-22T09:52:03.477Z,1012.05
2018-09-22T09:53:03.509Z,1011.94
2018-09-22T09:54:03.538Z,1012.01
2018-09-22T09:55:03.568Z,1011.91
2018-09-22T09:56:03.595Z,1011.94
2018-09-22T09:57:03.626Z,1011.92
2018-09-22T09:58:03.656Z,1011.84
2018-09-22T09:59:03.704Z,1011.84
2018-09-22T10:00:03.713Z,1011.88
2018-09-22T10:01:03.744Z,1011.88
2018-09-22T10:02:03.774Z,1011.82
2018-09-22T10:03:03.801Z,1011.86
2018-09-22T10:04:03.831Z,1011.88
2018-09-22T10:05:03.867Z,1011.93
2018-09-22T10:06:03.894Z,1011.91
2018-09-22T10:07:03.926Z,1011.92
2018-09-22T10:08:03.948Z,1011.98
2018-09-22T10:09:03.997Z,1011.97
2018-09-22T10:10:04.009Z,1012.06
2018-09-22T10:11:04.038Z,1012.08
2018-09-22T10:12:04.067Z,1012.07
2018-09-22T10:13:04.095Z,1012.24
2018-09-22T10:14:04.125Z,1012.14
2018-09-22T10:15:04.154Z,1012.10
2018-09-22T10:16:04.188Z,1012.12
2018-09-22T10:17:04.213Z,1012.04
2018-09-22T10:18:04.252Z,1011.98
2018-09-22T10:19:04.275Z,1012.00
2018-09-22T10:20:04.329Z,1011.98
2018-09-22T10:21:04.334Z,1011.95
2018-09-22T10:22:04.363Z,1011.87
2018-09-22T10:23:04.394Z,1011.90
2018-09-22T10:24:04.424Z,1011.80
2018-09-22T10:25:04.452Z,1011.90
2018-09-22T10:26:04.483Z,1011.96
2018-09-22T10:27:04.514Z,1011.89
2018-09-22T10:28:04.591Z,1011.86
2018-09-22T10:29:04.576Z,1012.07
2018-09-22T10:30:04.604Z,1012.16
2018-09-22T10:31:04.638Z,1012.20
2018-09-22T10:32:04.988Z,1012.00
2018-09-22T10:33:04.696Z,1012.33
2018-09-22T10:34:04.729Z,1012.22
2018-09-22T10:35:04.757Z,1012.41
2018-09-22T10:36:04.787Z,1012.13
2018-09-22T10:37:04.820Z,1012.09
2018-09-22T10:38:04.854Z,1011.95
2018-09-22T10:39:04.895Z,1011.99
2018-09-22T10:40:04.911Z,1011.91
2018-09-22T10:41:04.945Z,1011.87
2018-09-22T10:42:05.036Z,1011.89
2018-09-22T10:43:05.005Z,1011.75
2018-09-22T10:44:05.037Z,1011.75
2018-09-22T10:45:05.069Z,1011.73
2018-09-22T10:46:05.100Z,1011.73
2018-09-22T10:47:05.130Z,1011.66
2018-09-22T10:48:05.162Z,1011.68
2018-09-22T10:49:05.193Z,1011.63
2018-09-22T10:50:05.226Z,1011.56
2018-09-22T10:51:05.257Z,1011.54
2018-09-22T10:52:05.288Z,1011.55
2018-09-22T10:53:05.430Z,1011.67
2018-09-22T10:54:05.350Z,1011.62
2018-09-22T10:55:05.380Z,1011.62
2018-09-22T10:56:05.431Z,1011.58
2018-09-22T10:57:05.442Z,1011.72
2018-09-22T10:58:05.470Z,1011.71
2018-09-22T10:59:05.501Z,1011.79
2018-09-22T11:00:05.551Z,1011.69
2018-09-22T11:01:05.562Z,1011.63
2018-09-22T11:02:05.592Z,1011.66
2018-09-22T11:03:05.624Z,1011.72
2018-09-22T11:04:05.672Z,1011.66
2018-09-22T11:05:05.684Z,1011.59
2018-09-22T11:06:05.713Z,1011.56
2018-09-22T11:07:05.743Z,1011.56
2018-09-22T11:08:05.773Z,1011.52
2018-09-22T11:09:05.822Z,1011.51
2018-09-22T11:10:05.835Z,1011.64
2018-09-22T11:11:05.863Z,1011.66
2018-09-22T11:12:05.893Z,1011.71
2018-09-22T11:13:05.924Z,1011.74
2018-09-22T11:14:05.956Z,1011.65
2018-09-22T11:15:05.983Z,1011.63
2018-09-22T11:16:06.015Z,1011.55
2018-09-22T11:17:06.044Z,1011.52
2018-09-22T11:18:06.074Z,1011.57
2018-09-22T11:19:06.104Z,1011.56
2018-09-22T11:20:06.135Z,1011.49
2018-09-22T11:21:06.168Z,1011.43
2018-09-22T11:22:06.197Z,1011.35
2018-09-22T11:23:06.225Z,1011.35
2018-09-22T11:24:06.257Z,1011.31
2018-09-22T11:25:06.287Z,1011.25
2018-09-22T11:26:06.316Z,1011.29
2018-09-22T11:27:06.347Z,1011.30
2018-09-22T11:28:06.379Z,1011.26
2018-09-22T11:29:06.407Z,1011.27
2018-09-22T11:30:06.439Z,1011.33
2018-09-22T11:31:06.486Z,1011.34
2018-09-22T11:32:06.499Z,1011.32
2018-09-22T11:33:06.528Z,1011.43
2018-09-22T11:34:06.556Z,1011.41
2018-09-22T11:35:06.586Z,1011.43
2018-09-22T11:36:06.638Z,1011.46
2018-09-22T11:37:06.648Z,1011.41
2018-09-22T11:38:06.679Z,1011.44
2018-09-22T11:39:06.707Z,1011.40
2018-09-22T11:40:06.734Z,1011.34
2018-09-22T11:41:06.766Z,1011.36
2018-09-22T11:42:06.802Z,1011.31
2018-09-22T11:43:06.870Z,1011.31
2018-09-22T11:44:06.858Z,1011.33
2018-09-22T11:45:06.886Z,1011.31
2018-09-22T11:46:06.940Z,1011.36
2018-09-22T11:47:06.941Z,1011.40
2018-09-22T11:48:07.027Z,1011.43
2018-09-22T11:49:07.001Z,1011.49
2018-09-22T11:50:07.033Z,1011.54
2018-09-22T11:51:07.059Z,1011.50
2018-09-22T11:52:07.094Z,1011.51
2018-09-22T11:53:07.123Z,1011.37
2018-09-22T11:54:07.149Z,1011.44
2018-09-22T11:55:07.180Z,1011.41
2018-09-22T11:56:07.230Z,1011.45
2018-09-22T11:57:07.239Z,1011.37
2018-09-22T11:58:07.269Z,1011.37
2018-09-22T11:59:07.303Z,1011.41
2018-09-22T12:00:07.327Z,1011.44
2018-09-22T12:01:07.363Z,1011.41
2018-09-22T12:02:07.392Z,1011.36
2018-09-22T12:03:07.417Z,1011.37
2018-09-22T12:04:07.445Z,1011.47
2018-09-22T12:05:07.475Z,1011.41
2018-09-22T12:06:07.594Z,1011.41
2018-09-22T12:07:07.537Z,1011.32
2018-09-22T12:08:07.564Z,1011.46